Adamsville, Alabama
Current Conditions -  °F | °C
As of 1:27 AM on Sunday 23 Nov 2014 (Local Time) from KBHM Reporting Station
Broken Clouds Broken Clouds  
Wind Chill: 57°   Ceiling: 1800
Heat Index: 57°   Visibility: 10mi
Dew Point: 50°   Wind: 7mph
Humidity: 77%   Direction: NA
Pressure: 30.04"   Gusts: NA
Location:  33.6°N, 86.96°W
Report Text: KBHM 230727Z VRB06KT 10SM BKN018 14/10 A3004 RMK AO2 T01390100
Loading
Personal Weather Stations






























Interactive Weather Map New forecast layout! Learn more

10-Day Weather Forecast

Advertisements
Track Severe Weather on mobile